createdAt,value
2023-05-22T00:00:54.887Z,100846.09
2023-05-22T00:06:00.160Z,100844.75
2023-05-22T00:11:01.578Z,100843.13
2023-05-22T00:16:03.336Z,100844.63
2023-05-22T00:21:04.752Z,100837.53
2023-05-22T00:26:06.177Z,100839.13
2023-05-22T00:31:07.591Z,100831.03
2023-05-22T00:36:09.118Z,100825.81
2023-05-22T00:41:10.626Z,100815.03
2023-05-22T00:46:12.635Z,100807.81
2023-05-22T00:51:14.788Z,100809.63
2023-05-22T00:56:16.904Z,100808.09
2023-05-22T01:01:18.376Z,100816.78
2023-05-22T01:06:21.451Z,100821.97
2023-05-22T01:11:28.379Z,100826.03
2023-05-22T01:16:39.508Z,100821.91
2023-05-22T01:21:59.537Z,100824.69
2023-05-22T01:27:07.313Z,100818.81
2023-05-22T01:32:10.659Z,100818.31
2023-05-22T01:37:13.260Z,100823.63
2023-05-22T01:42:14.940Z,100822.66
2023-05-22T01:47:17.933Z,100807.84
2023-05-22T01:52:38.123Z,100808.69
2023-05-22T01:58:00.113Z,100811.59
2023-05-22T02:03:06.324Z,100800.00
2023-05-22T02:08:08.085Z,100805.50
2023-05-22T02:13:13.949Z,100803.28
2023-05-22T02:18:15.401Z,100805.03
2023-05-22T02:23:17.926Z,100804.84
2023-05-22T02:28:19.320Z,100801.88
2023-05-22T02:33:21.370Z,100798.44
2023-05-22T02:38:24.478Z,100801.50
2023-05-22T02:43:26.530Z,100801.19
2023-05-22T02:48:29.226Z,100796.84
2023-05-22T02:53:30.700Z,100795.50
2023-05-22T02:58:32.101Z,100790.47
2023-05-22T03:03:34.014Z,100797.66
2023-05-22T03:08:38.250Z,100788.91
2023-05-22T03:13:39.692Z,100786.09
2023-05-22T03:18:41.445Z,100792.41
2023-05-22T03:23:44.766Z,100789.81
2023-05-22T03:28:46.424Z,100786.72
2023-05-22T03:33:48.536Z,100796.34
2023-05-22T03:38:50.556Z,100793.66
2023-05-22T03:43:52.267Z,100787.09
2023-05-22T03:48:54.055Z,100787.44
2023-05-22T03:53:55.581Z,100796.16
2023-05-22T03:58:57.008Z,100801.91
2023-05-22T04:03:58.516Z,100794.34
2023-05-22T04:09:00.594Z,100798.25
2023-05-22T04:14:03.329Z,100799.38
2023-05-22T04:19:04.812Z,100795.28
2023-05-22T04:24:10.784Z,100797.03
2023-05-22T04:29:14.497Z,100807.09
2023-05-22T04:34:16.658Z,100810.75
2023-05-22T04:39:18.074Z,100812.72
2023-05-22T04:44:22.777Z,100821.34
2023-05-22T04:49:26.823Z,100816.56
2023-05-22T04:54:28.264Z,100815.63
2023-05-22T04:59:31.580Z,100821.00
2023-05-22T05:04:33.770Z,100818.38
2023-05-22T05:09:35.474Z,100822.72
2023-05-22T05:14:36.922Z,100823.59
2023-05-22T05:19:38.417Z,100822.88
2023-05-22T05:24:39.900Z,100831.53
2023-05-22T05:29:41.683Z,100836.44
2023-05-22T05:34:51.979Z,100831.16
2023-05-22T05:40:11.984Z,100847.38
2023-05-22T05:45:18.403Z,100844.78
2023-05-22T05:50:20.091Z,100840.00
2023-05-22T05:55:22.343Z,100841.16
2023-05-22T06:00:23.980Z,100845.47
2023-05-22T06:05:27.012Z,100843.91
2023-05-22T06:10:36.033Z,100853.81
2023-05-22T06:15:47.122Z,100849.66
2023-05-22T06:20:48.817Z,100846.34
2023-05-22T06:25:50.358Z,100852.88
2023-05-22T06:30:52.282Z,100851.66
2023-05-22T06:35:56.618Z,100861.59
2023-05-22T06:40:58.318Z,100865.63
2023-05-22T06:46:01.527Z,100880.03
2023-05-22T06:51:17.940Z,100877.28
2023-05-22T06:56:25.261Z,100885.28
2023-05-22T07:01:29.563Z,100884.94
2023-05-22T07:06:41.718Z,100887.72
2023-05-22T07:11:43.869Z,100901.00
2023-05-22T07:16:46.739Z,100903.78
2023-05-22T07:21:53.811Z,100909.28
2023-05-22T07:26:56.632Z,100915.31
2023-05-22T07:31:58.258Z,100911.88
2023-05-22T07:37:01.449Z,100920.50
2023-05-22T07:42:04.796Z,100926.50
2023-05-22T07:47:09.511Z,100925.69
2023-05-22T07:52:11.195Z,100923.72
2023-05-22T07:57:13.444Z,100924.66
2023-05-22T08:02:17.579Z,100928.28
2023-05-22T08:07:19.090Z,100933.59
2023-05-22T08:12:20.553Z,100941.25
2023-05-22T08:17:22.053Z,100933.84
2023-05-22T08:22:23.637Z,100941.59
2023-05-22T08:27:25.042Z,100945.03
2023-05-22T08:32:26.994Z,100947.78
2023-05-22T08:37:29.518Z,100949.31
2023-05-22T08:42:31.117Z,100949.44
2023-05-22T08:47:35.025Z,100945.91
2023-05-22T08:52:47.863Z,100936.88
2023-05-22T08:57:52.798Z,100945.69
2023-05-22T09:02:55.759Z,100954.19
2023-05-22T09:08:02.611Z,100955.72
2023-05-22T09:13:09.121Z,100949.31
2023-05-22T09:18:11.261Z,100962.22
2023-05-22T09:23:14.464Z,100962.03
2023-05-22T09:28:15.943Z,100961.13
2023-05-22T09:33:18.277Z,100970.66
2023-05-22T09:38:21.548Z,100962.00
2023-05-22T09:43:25.215Z,100966.31
2023-05-22T09:48:26.806Z,100969.25
2023-05-22T09:53:28.933Z,100976.38
2023-05-22T09:58:31.070Z,100973.13
2023-05-22T10:03:34.537Z,100972.56
2023-05-22T10:08:38.606Z,100975.09
2023-05-22T10:13:41.133Z,100979.00
2023-05-22T10:18:45.657Z,100972.59
2023-05-22T10:23:48.495Z,100975.69
2023-05-22T10:28:54.012Z,100971.69
2023-05-22T10:33:59.617Z,100972.94
2023-05-22T10:39:08.102Z,100973.81
2023-05-22T10:44:09.972Z,100972.00
2023-05-22T10:49:19.829Z,100960.16
2023-05-22T10:54:36.514Z,100966.31
2023-05-22T10:59:38.220Z,100956.81
2023-05-22T11:04:39.792Z,100961.56
2023-05-22T11:09:45.854Z,100956.13
2023-05-22T11:15:06.869Z,100960.56
2023-05-22T11:20:26.721Z,100950.38
2023-05-22T11:25:30.139Z,100948.06
2023-05-22T11:30:32.532Z,100946.47
2023-05-22T11:35:34.077Z,100940.41
2023-05-22T11:40:35.513Z,100942.78
2023-05-22T11:45:37.877Z,100932.66
2023-05-22T11:50:42.607Z,100928.06
2023-05-22T11:55:44.295Z,100937.28
2023-05-22T12:00:45.749Z,100923.88
2023-05-22T12:05:47.265Z,100921.63
2023-05-22T12:10:52.374Z,100918.84
2023-05-22T12:15:56.125Z,100916.81
2023-05-22T12:20:57.565Z,100909.56
2023-05-22T12:25:59.868Z,100907.31
2023-05-22T12:31:01.344Z,100909.84
2023-05-22T12:36:07.252Z,100907.78
2023-05-22T12:41:08.706Z,100912.44
2023-05-22T12:46:10.138Z,100903.56
2023-05-22T12:51:11.601Z,100901.66
2023-05-22T12:56:13.036Z,100896.72
2023-05-22T13:01:14.627Z,100898.59
2023-05-22T13:06:16.211Z,100889.31
2023-05-22T13:11:19.961Z,100894.59
2023-05-22T13:16:21.479Z,100892.31
2023-05-22T13:21:25.091Z,100876.78
2023-05-22T13:26:27.815Z,100882.94
2023-05-22T13:31:29.324Z,100880.28
2023-05-22T13:36:30.863Z,100881.88
2023-05-22T13:41:32.322Z,100880.72
2023-05-22T13:46:33.753Z,100867.41
2023-05-22T13:51:35.594Z,100873.56
2023-05-22T13:56:37.036Z,100879.00
2023-05-22T14:01:38.521Z,100875.34
2023-05-22T14:06:40.197Z,100871.56
2023-05-22T14:11:41.767Z,100882.38
2023-05-22T14:16:43.280Z,100884.47
2023-05-22T14:21:45.177Z,100876.06
2023-05-22T14:26:46.584Z,100887.41
2023-05-22T14:31:51.436Z,100880.19
2023-05-22T14:36:53.388Z,100884.50
2023-05-22T14:41:54.931Z,100882.13
2023-05-22T14:46:56.388Z,100879.19
2023-05-22T14:51:57.881Z,100879.25
2023-05-22T14:56:59.277Z,100869.25
2023-05-22T15:02:00.848Z,100865.88
2023-05-22T15:07:02.257Z,100864.06
2023-05-22T15:12:03.701Z,100857.88
2023-05-22T15:17:05.203Z,100863.31
2023-05-22T15:22:19.641Z,100852.59
2023-05-22T15:27:21.776Z,100837.13
2023-05-22T15:32:23.771Z,100838.16
2023-05-22T15:37:25.170Z,100842.41
2023-05-22T15:42:28.445Z,100839.63
2023-05-22T15:47:29.980Z,100833.72
2023-05-22T15:52:31.421Z,100831.16
2023-05-22T15:57:34.044Z,100825.00
2023-05-22T16:02:35.518Z,100829.34
2023-05-22T16:07:37.024Z,100829.66
2023-05-22T16:12:39.137Z,100829.75
2023-05-22T16:17:40.597Z,100834.75
2023-05-22T16:22:48.597Z,100839.16
2023-05-22T16:27:50.509Z,100844.81
2023-05-22T16:32:52.104Z,100845.03
2023-05-22T16:37:53.515Z,100845.41
2023-05-22T16:42:54.963Z,100857.50
2023-05-22T16:47:56.415Z,100858.50
2023-05-22T16:52:57.792Z,100856.81
2023-05-22T16:57:59.987Z,100860.97
2023-05-22T17:03:02.938Z,100857.66
2023-05-22T17:08:04.773Z,100853.53
2023-05-22T17:13:06.326Z,100884.72
2023-05-22T17:18:07.813Z,100888.09
2023-05-22T17:23:09.224Z,100886.03
2023-05-22T17:28:10.697Z,100887.81
2023-05-22T17:33:12.743Z,100907.44
2023-05-22T17:38:14.296Z,100909.97
2023-05-22T17:43:18.843Z,100909.94
2023-05-22T17:48:26.835Z,100911.13
2023-05-22T17:53:33.874Z,100923.28
2023-05-22T17:58:35.376Z,100925.66
2023-05-22T18:03:36.860Z,100931.97
2023-05-22T18:08:39.880Z,100933.22
2023-05-22T18:13:41.469Z,100939.06
2023-05-22T18:18:42.886Z,100944.50
2023-05-22T18:23:44.335Z,100948.31
2023-05-22T18:28:48.169Z,100951.56
2023-05-22T18:33:49.640Z,100950.16
2023-05-22T18:38:51.116Z,100948.66
2023-05-22T18:43:52.529Z,100953.94
2023-05-22T18:48:54.425Z,100957.53
2023-05-22T18:53:55.929Z,100963.81
2023-05-22T18:58:57.328Z,100975.44
2023-05-22T19:03:58.777Z,100978.25
2023-05-22T19:09:00.416Z,100982.00
2023-05-22T19:14:02.127Z,100990.81
2023-05-22T19:19:03.651Z,101000.75
2023-05-22T19:24:05.550Z,100995.34
2023-05-22T19:29:07.145Z,101001.19
2023-05-22T19:34:08.595Z,101011.81
2023-05-22T19:39:10.066Z,101020.72
2023-05-22T19:44:11.477Z,101021.38
2023-05-22T19:49:13.199Z,101026.97
2023-05-22T19:54:14.737Z,101030.53
2023-05-22T19:59:16.141Z,101051.25
2023-05-22T20:04:17.641Z,101048.53
2023-05-22T20:09:19.067Z,101054.97
2023-05-22T20:14:20.994Z,101058.81
2023-05-22T20:19:24.149Z,101069.38
2023-05-22T20:24:25.654Z,101082.81
2023-05-22T20:29:27.088Z,101079.88
2023-05-22T20:34:28.816Z,101085.22
2023-05-22T20:39:30.430Z,101092.47
2023-05-22T20:44:32.293Z,101098.66
2023-05-22T20:49:34.563Z,101104.41
2023-05-22T20:54:36.008Z,101113.50
2023-05-22T20:59:37.507Z,101107.91
2023-05-22T21:04:39.042Z,101113.38
2023-05-22T21:09:40.706Z,101113.44
2023-05-22T21:14:43.925Z,101109.97
2023-05-22T21:19:46.129Z,101118.00
2023-05-22T21:24:47.867Z,101116.84
2023-05-22T21:29:49.363Z,101121.47
2023-05-22T21:34:50.936Z,101130.91
2023-05-22T21:39:52.343Z,101114.97
2023-05-22T21:44:54.359Z,101121.63
2023-05-22T21:49:55.779Z,101123.84
2023-05-22T21:54:57.860Z,101133.00
2023-05-22T21:59:59.291Z,101147.56
2023-05-22T22:05:00.710Z,101150.34
2023-05-22T22:10:02.154Z,101144.19
2023-05-22T22:15:03.694Z,101155.13
2023-05-22T22:20:05.779Z,101158.44
2023-05-22T22:25:07.624Z,101167.13
2023-05-22T22:30:09.762Z,101164.13
2023-05-22T22:35:11.248Z,101166.75
2023-05-22T22:40:12.761Z,101178.94
2023-05-22T22:45:14.762Z,101180.94
2023-05-22T22:50:16.722Z,101186.97
2023-05-22T22:55:18.150Z,101190.84
2023-05-22T23:00:20.155Z,101194.41
2023-05-22T23:05:21.678Z,101191.91
2023-05-22T23:10:23.342Z,101201.69
2023-05-22T23:15:24.879Z,101207.28
2023-05-22T23:20:26.306Z,101211.16
2023-05-22T23:25:27.698Z,101220.28
2023-05-22T23:30:29.105Z,101201.69
2023-05-22T23:35:30.973Z,101203.38
2023-05-22T23:40:32.389Z,101195.88
2023-05-22T23:45:33.796Z,101191.50
2023-05-22T23:50:36.110Z,101195.38
2023-05-22T23:55:37.534Z,101186.75
